Time;durP1;ratioP1;P1;durP2;ratioP2;P2;SDS_P1;SDS_P2;PMS_P1;PMS_P2;Temp;Humidity;BMP_temperature;BMP_pressure;BME280_temperature;BME280_humidity;BME280_pressure;Samples;Min_cycle;Max_cycle;Signal;HPM_P1;HPM_P2
2023/04/06 00:00:33;;;;;;;24.15;11.88;;;;;;;5.21;100.00;101441.94;5084728;28;20036;-77
2023/04/06 00:03:00;;;;;;;27.05;12.73;;;;;;;5.17;100.00;101432.00;5082220;28;20049;-75
2023/04/06 00:05:27;;;;;;;26.33;12.40;;;;;;;5.12;100.00;101435.75;5084733;28;20052;-76
2023/04/06 00:07:55;;;;;;;28.00;13.38;;;;;;;5.07;100.00;101435.19;5083217;28;20569;-75
2023/04/06 00:10:22;;;;;;;30.08;12.90;;;;;;;5.06;100.00;101430.81;5084487;28;20113;-76
2023/04/06 00:12:48;;;;;;;28.60;12.07;;;;;;;5.02;100.00;101436.22;5077575;28;20047;-76
2023/04/06 00:15:15;;;;;;;29.67;12.93;;;;;;;4.96;100.00;101426.59;5082195;28;20040;-76
2023/04/06 00:17:42;;;;;;;27.65;12.65;;;;;;;4.84;100.00;101410.16;5086459;28;20044;-75
2023/04/06 00:20:09;;;;;;;26.98;13.05;;;;;;;4.87;100.00;101423.16;5079099;28;20062;-76
2023/04/06 00:22:36;;;;;;;27.40;13.60;;;;;;;4.83;100.00;101418.72;5081534;28;20056;-76
2023/04/06 00:25:02;;;;;;;30.27;13.48;;;;;;;4.78;100.00;101413.44;5080468;28;20050;-76
2023/04/06 00:27:29;;;;;;;28.10;12.93;;;;;;;4.79;100.00;101418.59;5083343;28;20049;-76
2023/04/06 00:29:56;;;;;;;29.63;12.68;;;;;;;4.81;100.00;101413.59;5079809;28;20051;-75
2023/04/06 00:32:22;;;;;;;30.98;13.82;;;;;;;4.73;100.00;101417.22;5071238;28;20044;-76
2023/04/06 00:34:49;;;;;;;28.23;13.45;;;;;;;4.66;100.00;101405.22;5085703;28;20048;-76
2023/04/06 00:37:16;;;;;;;26.20;13.68;;;;;;;4.66;100.00;101406.00;5077608;28;20056;-74
2023/04/06 00:39:42;;;;;;;32.58;15.25;;;;;;;4.65;100.00;101409.91;5079338;28;20487;-75
2023/04/06 00:42:15;;;;;;;29.67;13.43;;;;;;;4.61;100.00;101403.50;5084709;28;20055;-76
2023/04/06 00:44:42;;;;;;;25.27;13.43;;;;;;;4.60;100.00;101404.66;5082679;28;20043;-75
2023/04/06 00:47:08;;;;;;;29.13;14.50;;;;;;;4.58;100.00;101395.16;5080937;28;20059;-76
2023/04/06 00:49:35;;;;;;;34.55;15.18;;;;;;;4.52;100.00;101391.06;5085289;28;20048;-76
2023/04/06 00:52:02;;;;;;;29.40;13.75;;;;;;;4.46;100.00;101390.44;5082526;28;20448;-75
2023/04/06 00:54:30;;;;;;;31.23;14.57;;;;;;;4.40;100.00;101383.63;5080228;28;20404;-75
2023/04/06 00:56:57;;;;;;;29.10;14.70;;;;;;;4.34;100.00;101374.00;5086185;28;20055;-75
2023/04/06 00:59:24;;;;;;;30.27;14.50;;;;;;;4.41;100.00;101378.91;5085555;28;20048;-76
2023/04/06 01:01:51;;;;;;;30.35;15.05;;;;;;;4.36;100.00;101381.88;5076063;28;20727;-75
2023/04/06 01:04:17;;;;;;;27.40;14.45;;;;;;;4.33;100.00;101377.91;5082485;28;20129;-75
2023/04/06 01:06:45;;;;;;;34.08;14.90;;;;;;;4.28;100.00;101374.53;5078508;28;20048;-75
2023/04/06 01:09:11;;;;;;;30.70;15.27;;;;;;;4.22;100.00;101364.97;5082825;28;20113;-75
2023/04/06 01:11:38;;;;;;;28.00;14.57;;;;;;;4.17;100.00;101363.25;5083741;28;20050;-76
2023/04/06 01:14:05;;;;;;;29.83;15.82;;;;;;;4.19;100.00;101374.63;5080610;28;20050;-75
2023/04/06 01:16:31;;;;;;;34.15;16.05;;;;;;;4.18;100.00;101369.50;5081304;28;20048;-75
2023/04/06 01:18:58;;;;;;;30.05;14.57;;;;;;;4.19;100.00;101360.16;5080089;28;20041;-76
2023/04/06 01:21:25;;;;;;;29.08;14.65;;;;;;;4.16;100.00;101361.66;5080033;28;20066;-76
2023/04/06 01:23:51;;;;;;;29.98;15.05;;;;;;;4.14;100.00;101358.44;5081106;28;20044;-76
2023/04/06 01:26:18;;;;;;;35.08;16.13;;;;;;;4.16;100.00;101355.34;5080389;28;20048;-76
2023/04/06 01:28:44;;;;;;;29.85;15.40;;;;;;;4.07;100.00;101354.63;5079180;28;20052;-76
2023/04/06 01:31:11;;;;;;;31.20;14.98;;;;;;;3.98;100.00;101352.00;5083078;28;20048;-75
2023/04/06 01:33:38;;;;;;;29.50;15.55;;;;;;;3.97;100.00;101355.06;5077838;28;20209;-76
2023/04/06 01:36:05;;;;;;;29.55;13.85;;;;;;;3.96;100.00;101350.72;5082291;28;20062;-76
2023/04/06 01:38:31;;;;;;;30.58;14.77;;;;;;;3.96;100.00;101351.53;5086147;28;20101;-75
2023/04/06 01:40:58;;;;;;;32.33;15.23;;;;;;;3.94;100.00;101345.59;5082772;28;20049;-76
2023/04/06 01:43:25;;;;;;;33.25;15.65;;;;;;;3.94;100.00;101342.03;5084386;28;20046;-76
2023/04/06 01:45:51;;;;;;;29.83;15.63;;;;;;;3.90;100.00;101344.69;5088068;28;20063;-76
2023/04/06 01:48:18;;;;;;;31.30;15.50;;;;;;;3.92;100.00;101345.13;5086985;28;20056;-76
2023/04/06 01:50:45;;;;;;;29.73;15.15;;;;;;;3.88;100.00;101344.19;5086185;28;20048;-76
2023/04/06 01:53:11;;;;;;;33.60;15.80;;;;;;;3.82;100.00;101339.28;5086424;28;20581;-75
2023/04/06 01:55:38;;;;;;;33.55;16.30;;;;;;;3.82;100.00;101340.09;5083069;28;20502;-75
2023/04/06 01:58:05;;;;;;;35.00;16.35;;;;;;;3.77;100.00;101337.56;5079360;28;20461;-75
2023/04/06 02:00:31;;;;;;;32.70;16.58;;;;;;;3.83;100.00;101343.63;5078920;28;20053;-74
2023/04/06 02:02:58;;;;;;;32.88;15.60;;;;;;;3.82;100.00;101342.03;5082380;28;20557;-75
2023/04/06 02:05:25;;;;;;;29.90;15.20;;;;;;;3.70;100.00;101337.31;5085384;28;20131;-75
2023/04/06 02:07:52;;;;;;;33.60;16.38;;;;;;;3.65;100.00;101329.28;5085845;28;20169;-76
2023/04/06 02:10:18;;;;;;;36.42;16.65;;;;;;;3.70;100.00;101333.75;5081944;28;20052;-74
2023/04/06 02:12:45;;;;;;;32.30;15.38;;;;;;;3.72;100.00;101335.03;5086736;28;21594;-74
2023/04/06 02:15:13;;;;;;;33.53;15.73;;;;;;;3.73;100.00;101331.16;5088856;28;20052;-77
2023/04/06 02:17:40;;;;;;;34.22;16.75;;;;;;;3.73;100.00;101336.63;5089659;28;20494;-76
2023/04/06 02:20:07;;;;;;;33.35;17.23;;;;;;;3.72;100.00;101339.69;5086711;28;20059;-76
2023/04/06 02:22:37;;;;;;;32.55;15.98;;;;;;;3.67;100.00;101331.69;5087206;28;20057;-77
2023/04/06 02:25:04;;;;;;;37.55;16.33;;;;;;;3.69;100.00;101332.16;5087184;28;20047;-76
2023/04/06 02:27:30;;;;;;;33.08;16.05;;;;;;;3.67;100.00;101337.16;5088756;28;20056;-76
2023/04/06 02:29:57;;;;;;;33.25;16.38;;;;;;;3.56;100.00;101328.56;5086894;28;20052;-74
2023/04/06 02:32:24;;;;;;;32.30;15.98;;;;;;;3.60;100.00;101324.03;5086926;28;20126;-77
2023/04/06 02:34:51;;;;;;;32.90;16.20;;;;;;;3.59;100.00;101336.13;5091121;28;20054;-76
2023/04/06 02:37:18;;;;;;;33.97;16.02;;;;;;;3.53;100.00;101334.72;5089118;28;20075;-76
2023/04/06 02:39:45;;;;;;;32.75;16.67;;;;;;;3.50;100.00;101329.09;5082894;28;20047;-77
2023/04/06 02:42:11;;;;;;;31.45;15.25;;;;;;;3.49;100.00;101332.97;5086493;28;20052;-75
2023/04/06 02:44:42;;;;;;;35.45;16.77;;;;;;;3.45;100.00;101335.59;5085717;28;20046;-75
2023/04/06 02:47:09;;;;;;;38.47;16.20;;;;;;;3.43;100.00;101320.63;5088394;28;20052;-76
2023/04/06 02:49:36;;;;;;;31.63;16.10;;;;;;;3.46;100.00;101325.44;5088920;28;20048;-76
2023/04/06 02:52:02;;;;;;;36.80;17.25;;;;;;;3.41;100.00;101326.44;5087555;28;20044;-75
2023/04/06 02:54:29;;;;;;;33.85;16.13;;;;;;;3.34;100.00;101328.91;5085604;28;20044;-76
2023/04/06 02:56:56;;;;;;;31.52;15.45;;;;;;;3.35;100.00;101324.25;5087160;28;20052;-76
2023/04/06 02:59:22;;;;;;;34.33;16.15;;;;;;;3.34;100.00;101323.44;5083333;28;20506;-74
2023/04/06 03:01:49;;;;;;;35.70;16.48;;;;;;;3.33;100.00;101324.59;5087593;28;20114;-76
2023/04/06 03:04:16;;;;;;;32.53;15.52;;;;;;;3.31;100.00;101321.38;5088594;28;20559;-75
2023/04/06 03:06:42;;;;;;;34.47;15.88;;;;;;;3.29;100.00;101312.72;5084890;28;20048;-75
2023/04/06 03:09:09;;;;;;;30.60;15.30;;;;;;;3.28;100.00;101315.78;5081613;28;20066;-76
2023/04/06 03:11:36;;;;;;;31.30;16.05;;;;;;;3.27;100.00;101311.47;5087845;28;20063;-75
2023/04/06 03:14:02;;;;;;;31.30;15.80;;;;;;;3.24;100.00;101312.91;5087560;28;20051;-75
2023/04/06 03:16:29;;;;;;;32.47;16.38;;;;;;;3.23;100.00;101315.97;5086987;28;20052;-76
2023/04/06 03:18:55;;;;;;;38.58;17.15;;;;;;;3.22;100.00;101311.66;5080409;28;20075;-76
2023/04/06 03:21:22;;;;;;;32.55;16.55;;;;;;;3.22;100.00;101315.19;5089952;28;20044;-76
2023/04/06 03:23:52;;;;;;;33.53;16.98;;;;;;;3.17;100.00;101314.59;5081868;28;20063;-74
2023/04/06 03:26:18;;;;;;;33.65;15.57;;;;;;;3.10;100.00;101306.91;5076759;28;20060;-76
2023/04/06 03:28:45;;;;;;;32.92;16.50;;;;;;;3.06;100.00;101305.97;5083860;28;20055;-76
2023/04/06 03:31:11;;;;;;;35.80;16.98;;;;;;;3.06;100.00;101314.19;5086690;28;20060;-75
2023/04/06 03:33:38;;;;;;;32.83;17.20;;;;;;;3.08;100.00;101305.63;5080211;28;20502;-75
2023/04/06 03:36:05;;;;;;;35.05;15.95;;;;;;;3.10;100.00;101317.84;5088521;28;20143;-76
2023/04/06 03:38:31;;;;;;;32.95;16.42;;;;;;;3.05;100.00;101307.13;5093397;28;20052;-75
2023/04/06 03:40:58;;;;;;;35.33;16.85;;;;;;;3.03;100.00;101309.38;5087297;28;20043;-76
2023/04/06 03:43:24;;;;;;;35.22;16.73;;;;;;;3.01;100.00;101308.09;5085838;28;20052;-76
2023/04/06 03:45:51;;;;;;;33.13;17.33;;;;;;;2.97;100.00;101309.91;5087525;28;20047;-75
2023/04/06 03:48:17;;;;;;;35.30;17.13;;;;;;;2.96;100.00;101305.59;5075856;28;20135;-75
2023/04/06 03:50:44;;;;;;;30.58;15.40;;;;;;;2.96;100.00;101314.56;5088103;28;20048;-75
2023/04/06 03:53:11;;;;;;;32.95;16.00;;;;;;;3.00;100.00;101315.50;5086374;28;20059;-75
2023/04/06 03:55:37;;;;;;;37.40;17.05;;;;;;;2.97;100.00;101324.34;5087735;28;20044;-76
2023/04/06 03:58:04;;;;;;;29.52;15.18;;;;;;;2.94;100.00;101325.03;5078458;28;20051;-75
2023/04/06 04:00:32;;;;;;;34.33;16.73;;;;;;;2.92;100.00;101321.84;5080344;28;20421;-74
2023/04/06 04:03:00;;;;;;;40.33;16.63;;;;;;;2.93;100.00;101322.66;5086366;28;20516;-75
2023/04/06 04:05:27;;;;;;;31.92;16.10;;;;;;;2.94;100.00;101321.50;5088708;28;20044;-76
2023/04/06 04:07:53;;;;;;;32.97;16.38;;;;;;;2.92;100.00;101319.09;5078714;28;20051;-76
2023/04/06 04:10:20;;;;;;;35.53;15.43;;;;;;;2.94;100.00;101322.31;5084025;28;20526;-75
2023/04/06 04:12:46;;;;;;;33.60;16.30;;;;;;;2.96;100.00;101327.44;5089223;28;20407;-75
2023/04/06 04:15:16;;;;;;;31.35;16.80;;;;;;;2.90;100.00;101326.81;5085635;28;20055;-74
2023/04/06 04:17:46;;;;;;;32.95;15.40;;;;;;;2.88;100.00;101320.09;5085389;28;20048;-75
2023/04/06 04:20:13;;;;;;;32.58;16.58;;;;;;;2.86;100.00;101323.16;5087481;28;20134;-75
2023/04/06 04:22:40;;;;;;;31.85;16.38;;;;;;;2.85;100.00;101321.56;5086543;28;20055;-76
2023/04/06 04:25:07;;;;;;;33.92;16.23;;;;;;;2.84;100.00;101319.97;5086990;28;20075;-75
2023/04/06 04:27:34;;;;;;;37.20;16.23;;;;;;;2.82;100.00;101319.47;5077433;28;20044;-76
2023/04/06 04:30:00;;;;;;;30.85;15.57;;;;;;;2.82;100.00;101319.47;5087260;28;20044;-75
2023/04/06 04:32:27;;;;;;;30.83;15.15;;;;;;;2.76;100.00;101318.06;5085389;28;20484;-74
2023/04/06 04:34:54;;;;;;;32.53;16.10;;;;;;;2.69;100.00;101313.13;5086463;28;20117;-75
2023/04/06 04:37:20;;;;;;;37.60;17.10;;;;;;;2.67;100.00;101317.34;5077666;28;20497;-75
2023/04/06 04:39:47;;;;;;;34.10;16.40;;;;;;;2.66;100.00;101319.25;5085763;28;20840;-74
2023/04/06 04:42:14;;;;;;;33.40;15.82;;;;;;;2.65;100.00;101314.13;5083340;28;20569;-75
2023/04/06 04:44:40;;;;;;;33.90;16.35;;;;;;;2.65;100.00;101314.13;5086795;28;20563;-76
2023/04/06 04:47:07;;;;;;;31.50;15.73;;;;;;;2.65;100.00;101312.19;5085552;28;20054;-74
2023/04/06 04:49:34;;;;;;;32.58;15.35;;;;;;;2.63;100.00;101308.16;5089964;28;20179;-73
2023/04/06 04:52:00;;;;;;;35.78;16.88;;;;;;;2.62;100.00;101301.13;5084308;28;20059;-76
2023/04/06 04:54:27;;;;;;;35.40;15.68;;;;;;;2.63;100.00;101308.16;5086846;28;20044;-76
2023/04/06 04:56:53;;;;;;;36.90;16.80;;;;;;;2.61;100.00;101299.53;5083009;28;20046;-74
2023/04/06 04:59:20;;;;;;;32.88;15.95;;;;;;;2.63;100.00;101317.19;5085252;28;20052;-76
2023/04/06 05:01:46;;;;;;;29.65;15.40;;;;;;;2.61;100.00;101311.22;5084200;28;20051;-74
2023/04/06 05:04:20;;;;;;;31.85;15.95;;;;;;;2.56;100.00;101303.25;5084963;28;20043;-74
2023/04/06 05:06:47;;;;;;;34.65;15.82;;;;;;;2.61;100.00;101308.50;5083733;28;20056;-76
2023/04/06 05:09:14;;;;;;;39.38;18.52;;;;;;;2.54;100.00;101313.69;5089371;28;20048;-76
2023/04/06 05:11:40;;;;;;;45.85;23.23;;;;;;;2.66;100.00;101310.25;5086911;28;20047;-76
2023/04/06 05:14:07;;;;;;;37.90;18.17;;;;;;;2.66;100.00;101310.25;5088176;28;20048;-75
2023/04/06 05:16:34;;;;;;;43.35;18.95;;;;;;;2.67;100.00;101315.38;5086459;28;20034;-76
2023/04/06 05:19:00;;;;;;;32.13;16.95;;;;;;;2.66;100.00;101307.50;5085508;28;20355;-76
2023/04/06 05:21:27;;;;;;;35.55;17.25;;;;;;;2.70;100.00;101313.91;5090304;28;20051;-75
2023/04/06 05:23:54;;;;;;;34.67;17.15;;;;;;;2.69;100.00;101312.31;5088565;28;20104;-75
2023/04/06 05:26:21;;;;;;;32.17;16.58;;;;;;;2.67;100.00;101309.91;5090052;28;20135;-75
2023/04/06 05:28:47;;;;;;;33.40;16.50;;;;;;;2.70;100.00;101308.44;5090536;28;20627;-74
2023/04/06 05:31:14;;;;;;;37.67;15.82;;;;;;;2.68;100.00;101314.28;5089084;28;20051;-76
2023/04/06 05:33:41;;;;;;;32.42;15.98;;;;;;;2.62;100.00;101306.56;5081825;28;20050;-74
2023/04/06 05:36:08;;;;;;;36.25;15.23;;;;;;;2.69;100.00;101313.13;5087360;28;20133;-75
2023/04/06 05:38:35;;;;;;;34.85;17.08;;;;;;;2.72;100.00;101308.94;5088810;28;20086;-76
2023/04/06 05:41:05;;;;;;;36.20;18.05;;;;;;;2.73;100.00;101300.41;5089502;28;20545;-74
2023/04/06 05:43:32;;;;;;;36.90;17.20;;;;;;;2.81;100.00;101311.63;5089242;28;20048;-75
2023/04/06 05:45:58;;;;;;;30.42;16.48;;;;;;;2.82;100.00;101297.63;5080694;28;20048;-76
2023/04/06 05:48:25;;;;;;;32.75;17.15;;;;;;;2.91;100.00;101306.56;5086381;28;20048;-75
2023/04/06 05:50:53;;;;;;;37.15;16.45;;;;;;;2.89;100.00;101300.63;5084723;28;20055;-75
2023/04/06 05:53:20;;;;;;;34.13;16.10;;;;;;;2.95;100.00;101303.97;5080383;28;20531;-75
2023/04/06 05:55:47;;;;;;;32.28;15.63;;;;;;;2.98;100.00;101309.56;5081422;28;20041;-76
2023/04/06 05:58:14;;;;;;;32.85;17.20;;;;;;;3.00;100.00;101309.25;5087811;28;20054;-76
2023/04/06 06:00:42;;;;;;;36.75;16.98;;;;;;;3.05;100.00;101311.78;5083445;28;20094;-75
2023/04/06 06:03:09;;;;;;;32.60;15.07;;;;;;;3.09;100.00;101305.31;5088139;28;20631;-76
2023/04/06 06:05:36;;;;;;;30.58;15.43;;;;;;;3.09;100.00;101302.56;5084438;28;20563;-73
2023/04/06 06:08:03;;;;;;;35.40;16.17;;;;;;;3.18;100.00;101313.44;5081031;28;20093;-75
2023/04/06 06:10:29;;;;;;;35.15;16.90;;;;;;;3.24;100.00;101307.44;5089690;28;20044;-76
2023/04/06 06:12:56;;;;;;;34.47;16.40;;;;;;;3.32;100.00;101309.31;5086428;28;20047;-75
2023/04/06 06:15:22;;;;;;;33.53;16.90;;;;;;;3.40;100.00;101311.16;5087304;28;20040;-76
2023/04/06 06:17:49;;;;;;;37.67;18.42;;;;;;;3.44;100.00;101312.09;5078623;28;20081;-76
2023/04/06 06:20:16;;;;;;;41.53;18.23;;;;;;;3.48;100.00;101304.81;5077865;28;20131;-75
2023/04/06 06:22:42;;;;;;;39.83;18.35;;;;;;;3.56;100.00;101312.16;5088427;28;20048;-75
2023/04/06 06:25:09;;;;;;;33.17;18.42;;;;;;;3.63;100.00;101309.69;5088870;28;20040;-76
2023/04/06 06:27:36;;;;;;;42.28;20.77;;;;;;;3.72;100.00;101302.19;5088394;28;20070;-75
2023/04/06 06:30:03;;;;;;;31.33;15.65;;;;;;;3.83;100.00;101306.09;5088120;28;20128;-74
2023/04/06 06:32:30;;;;;;;30.95;15.68;;;;;;;3.91;100.00;101302.47;5079739;28;20434;-77
2023/04/06 06:34:56;;;;;;;34.72;15.50;;;;;;;4.02;100.00;101311.06;5087755;28;20063;-77
2023/04/06 06:37:23;;;;;;;34.35;15.80;;;;;;;4.08;100.00;101304.22;5089088;28;20047;-77
2023/04/06 06:39:49;;;;;;;30.17;16.38;;;;;;;4.18;100.00;101311.97;5087980;28;20052;-78
2023/04/06 06:42:16;;;;;;;36.88;16.33;;;;;;;4.28;100.00;101315.09;5090094;28;20059;-78
2023/04/06 06:44:42;;;;;;;37.03;16.58;;;;;;;4.39;100.00;101308.00;5086665;28;20067;-78
2023/04/06 06:47:09;;;;;;;34.67;16.25;;;;;;;4.51;100.00;101301.75;5087775;28;20051;-79
2023/04/06 06:49:35;;;;;;;34.35;16.45;;;;;;;4.64;100.00;101303.34;5082894;28;20048;-78
2023/04/06 06:52:02;;;;;;;40.17;16.27;;;;;;;4.81;100.00;101305.84;5087174;28;20048;-78
2023/04/06 06:54:29;;;;;;;32.75;15.85;;;;;;;4.95;100.00;101309.03;5088785;28;20054;-79
2023/04/06 06:56:55;;;;;;;33.67;15.55;;;;;;;5.08;100.00;101305.13;5090325;28;20040;-79
2023/04/06 06:59:22;;;;;;;29.90;14.07;;;;;;;5.22;100.00;101305.53;5087295;28;20134;-78
2023/04/06 07:01:50;;;;;;;27.23;14.05;;;;;;;5.37;100.00;101310.31;5087828;28;20498;-78
2023/04/06 07:04:16;;;;;;;31.13;14.20;;;;;;;5.53;100.00;101310.38;5084195;28;20091;-78
2023/04/06 07:06:43;;;;;;;32.58;14.30;;;;;;;5.63;100.00;101301.63;5087295;28;20048;-80
2023/04/06 07:09:10;;;;;;;29.58;13.63;;;;;;;5.79;100.00;101299.72;5087418;28;20090;-77
2023/04/06 07:11:36;;;;;;;29.92;12.50;;;;;;;5.96;100.00;101302.97;5086639;28;20056;-77
2023/04/06 07:14:03;;;;;;;30.83;12.98;;;;;;;6.11;100.00;101307.69;5088167;28;20063;-79
2023/04/06 07:16:29;;;;;;;23.08;11.30;;;;;;;6.20;100.00;101299.25;5079432;28;20131;-76
2023/04/06 07:18:58;;;;;;;26.60;11.77;;;;;;;6.40;100.00;101306.44;5081914;28;20421;-77
2023/04/06 07:21:26;;;;;;;24.65;11.82;;;;;;;6.57;100.00;101295.91;5088106;28;20123;-76
2023/04/06 07:23:53;;;;;;;28.10;12.60;;;;;;;6.75;100.00;101288.09;5087430;28;20090;-77
2023/04/06 07:26:19;;;;;;;26.77;11.20;;;;;;;6.98;100.00;101294.47;5083775;28;20040;-77
2023/04/06 07:28:46;;;;;;;26.77;11.20;;;;;;;7.21;100.00;101293.44;5086816;28;20050;-76
2023/04/06 07:31:13;;;;;;;26.13;8.48;;;;;;;7.38;100.00;101293.03;5082501;28;20040;-77
2023/04/06 07:33:39;;;;;;;8.57;4.88;;;;;;;7.60;100.00;101300.53;5085816;28;20054;-78
2023/04/06 07:36:06;;;;;;;24.45;9.73;;;;;;;7.83;99.78;101297.84;5085450;28;20059;-78
2023/04/06 07:38:33;;;;;;;22.13;9.13;;;;;;;8.03;100.00;101304.91;5085083;28;20583;-78
2023/04/06 07:40:59;;;;;;;25.90;10.18;;;;;;;8.16;97.06;101289.81;5083263;28;20755;-77
2023/04/06 07:43:26;;;;;;;24.05;9.80;;;;;;;8.29;97.22;101291.25;5084645;28;20157;-77
2023/04/06 07:45:53;;;;;;;23.35;10.20;;;;;;;8.44;95.93;101289.53;5087366;28;20039;-77
2023/04/06 07:48:20;;;;;;;24.05;10.15;;;;;;;8.59;95.61;101286.63;5087506;28;20043;-78
2023/04/06 07:50:46;;;;;;;22.33;9.80;;;;;;;8.71;93.09;101291.94;5081776;28;20044;-77
2023/04/06 07:53:13;;;;;;;25.13;11.23;;;;;;;8.80;92.36;101286.16;5086168;28;20078;-77
2023/04/06 07:55:39;;;;;;;18.95;8.82;;;;;;;8.94;87.06;101287.16;5092118;28;20043;-77
2023/04/06 07:58:06;;;;;;;23.35;10.45;;;;;;;9.16;89.72;101278.03;5084492;28;20400;-79
2023/04/06 08:00:34;;;;;;;30.00;10.75;;;;;;;9.27;87.66;101283.66;5084536;28;20694;-77
2023/04/06 08:03:00;;;;;;;16.08;5.75;;;;;;;9.30;79.34;101283.72;5087007;28;20055;-78
2023/04/06 08:05:27;;;;;;;10.98;5.03;;;;;;;9.42;77.20;101277.94;5087254;28;20055;-77
2023/04/06 08:07:54;;;;;;;21.48;10.43;;;;;;;9.57;78.11;101276.97;5086549;28;20044;-78
2023/04/06 08:10:20;;;;;;;16.30;7.47;;;;;;;9.75;75.30;101280.72;5084639;28;20052;-80
2023/04/06 08:12:47;;;;;;;21.65;9.95;;;;;;;9.94;75.93;101280.53;5086612;28;20044;-78
2023/04/06 08:15:13;;;;;;;21.48;10.85;;;;;;;10.08;73.33;101283.47;5086945;28;20050;-79
2023/04/06 08:17:40;;;;;;;23.42;8.77;;;;;;;10.25;70.63;101279.28;5087198;28;20059;-77
2023/04/06 08:20:07;;;;;;;22.30;9.18;;;;;;;10.41;69.95;101283.38;5081195;28;20808;-78
2023/04/06 08:22:33;;;;;;;24.90;10.05;;;;;;;10.52;67.44;101275.97;5086710;28;20056;-78
2023/04/06 08:25:00;;;;;;;24.38;9.85;;;;;;;10.70;66.47;101289.13;5087159;28;20154;-78
2023/04/06 08:27:27;;;;;;;7.75;3.72;;;;;;;10.73;62.94;101275.31;5087037;28;20040;-79
2023/04/06 08:29:53;;;;;;;15.00;5.00;;;;;;;10.94;62.02;101275.47;5084430;28;20040;-75
2023/04/06 08:32:20;;;;;;;13.57;4.85;;;;;;;11.04;60.30;101273.94;5078360;28;20123;-78
2023/04/06 08:34:46;;;;;;;24.30;10.88;;;;;;;11.29;61.67;101266.53;5068682;28;20052;-77
2023/04/06 08:37:13;;;;;;;14.93;6.22;;;;;;;11.42;60.96;101270.56;5081161;28;20039;-77
2023/04/06 08:39:40;;;;;;;21.05;10.35;;;;;;;11.66;62.53;101264.34;5083243;28;20607;-79
2023/04/06 08:42:16;;;;;;;21.67;10.23;;;;;;;11.76;57.80;101263.59;5078872;28;20051;-76
2023/04/06 08:44:44;;;;;;;23.27;9.98;;;;;;;11.90;58.13;101263.63;5088339;28;20052;-77
2023/04/06 08:47:10;;;;;;;24.80;11.32;;;;;;;12.01;58.65;101258.88;5082051;28;20036;-78
2023/04/06 08:49:37;;;;;;;23.70;10.23;;;;;;;12.16;57.49;101257.72;5088265;28;20074;-77
2023/04/06 08:52:07;;;;;;;28.67;11.25;;;;;;;12.33;57.19;101259.72;5082426;28;20402;-78
2023/04/06 08:54:34;;;;;;;21.35;10.38;;;;;;;12.38;56.43;101253.75;5090765;28;20050;-77
2023/04/06 08:57:02;;;;;;;23.58;10.02;;;;;;;12.39;54.95;101261.69;5088744;28;20066;-77
2023/04/06 08:59:30;;;;;;;21.52;7.70;;;;;;;12.49;53.64;101252.56;5089483;28;20048;-78
2023/04/06 09:01:58;;;;;;;22.88;11.00;;;;;;;12.56;53.43;101258.13;5088296;28;20150;-78
2023/04/06 09:04:26;;;;;;;25.92;11.50;;;;;;;12.69;54.07;101256.53;5087385;28;20048;-79
2023/04/06 09:06:52;;;;;;;28.67;10.82;;;;;;;12.77;53.76;101251.75;5086184;28;20075;-79
2023/04/06 09:09:20;;;;;;;24.60;11.00;;;;;;;12.89;55.30;101243.78;5085423;28;20062;-79
2023/04/06 09:11:52;;;;;;;22.70;10.57;;;;;;;13.12;54.28;101257.25;5086006;28;20071;-77
2023/04/06 09:14:37;;;;;;;13.63;5.20;;;;;;;13.17;50.54;101256.84;5089362;28;20123;-80
2023/04/06 09:17:05;;;;;;;24.85;11.35;;;;;;;13.15;50.81;101255.66;5087981;28;20076;-80
2023/04/06 09:19:32;;;;;;;24.60;10.60;;;;;;;13.27;51.66;101249.69;5081317;28;20135;-77
2023/04/06 09:22:07;;;;;;;23.63;9.65;;;;;;;13.25;47.45;101250.06;5083824;28;20074;-76
2023/04/06 09:24:44;;;;;;;25.00;10.00;;;;;;;13.28;46.58;101240.13;5082854;28;20472;-77
2023/04/06 09:27:12;;;;;;;26.33;12.63;;;;;;;13.34;46.90;101252.44;5079348;28;20070;-77
2023/04/06 09:29:40;;;;;;;22.70;11.38;;;;;;;13.33;47.42;101248.84;5085006;28;20506;-76
2023/04/06 09:32:10;;;;;;;27.48;12.20;;;;;;;13.54;49.42;101247.97;5085021;28;20062;-77
2023/04/06 09:34:40;;;;;;;27.75;14.27;;;;;;;13.55;48.29;101239.22;5082049;28;20051;-76
2023/04/06 09:37:18;;;;;;;22.55;10.70;;;;;;;13.53;45.80;101249.94;5084825;28;20048;-76
2023/04/06 09:39:45;;;;;;;11.43;4.50;;;;;;;13.45;44.87;101244.81;5085426;28;20052;-77
2023/04/06 09:42:25;;;;;;;24.70;11.27;;;;;;;13.53;44.89;101243.63;5084322;28;20083;-77
2023/04/06 09:44:51;;;;;;;24.98;12.60;;;;;;;13.64;46.55;101236.81;5084267;28;20159;-78
2023/04/06 09:47:19;;;;;;;18.55;7.45;;;;;;;13.57;45.53;101242.38;5081840;28;20048;-76
2023/04/06 09:49:49;;;;;;;22.75;8.13;;;;;;;13.60;45.06;101238.03;5086227;28;20056;-77
2023/04/06 09:52:18;;;;;;;13.98;4.85;;;;;;;13.65;45.50;101246.72;5087119;28;20043;-75
2023/04/06 09:54:49;;;;;;;28.85;12.07;;;;;;;13.79;45.78;101235.53;5081356;28;20052;-77
2023/04/06 09:57:24;;;;;;;25.65;11.32;;;;;;;13.94;46.57;101233.44;5087298;28;20040;-76
2023/04/06 10:00:09;;;;;;;21.75;9.93;;;;;;;14.05;45.72;101237.75;5083530;28;21712;-76
2023/04/06 10:03:01;;;;;;;15.57;6.67;;;;;;;13.99;46.97;101231.03;5078321;28;20052;-75
2023/04/06 10:05:41;;;;;;;22.08;7.03;;;;;;;13.98;44.56;101235.00;5072731;28;20301;-79
2023/04/06 10:08:11;;;;;;;17.70;5.97;;;;;;;14.02;44.94;101227.44;5081836;28;20058;-77
2023/04/06 10:10:39;;;;;;;29.90;11.45;;;;;;;14.20;44.41;101228.06;5081345;28;20056;-78
2023/04/06 10:13:07;;;;;;;21.67;9.43;;;;;;;14.33;44.47;101231.97;5077488;28;20068;-76
2023/04/06 10:15:33;;;;;;;15.15;6.93;;;;;;;14.60;44.35;101221.78;5080409;28;20443;-76
2023/04/06 10:18:02;;;;;;;28.98;13.52;;;;;;;14.87;44.83;101217.16;5079671;28;20048;-77
2023/04/06 10:20:34;;;;;;;24.50;11.80;;;;;;;14.94;42.96;101216.25;5087616;28;20047;-78
2023/04/06 10:23:15;;;;;;;29.13;12.20;;;;;;;15.15;42.82;101210.44;5076929;28;20168;-73
2023/04/06 10:25:56;;;;;;;28.50;12.60;;;;;;;15.38;43.76;101210.59;5084730;28;20048;-76
2023/04/06 10:28:25;;;;;;;24.13;11.27;;;;;;;15.41;42.42;101213.34;5077328;28;20109;-77
2023/04/06 10:31:04;;;;;;;10.27;5.05;;;;;;;15.43;41.97;101210.13;5084024;28;20131;-75
2023/04/06 10:33:30;;;;;;;23.25;10.27;;;;;;;15.37;41.53;101215.41;5082185;28;20505;-75
2023/04/06 10:35:57;;;;;;;18.92;8.23;;;;;;;15.30;42.18;101218.22;5086630;28;20052;-76
2023/04/06 10:38:38;;;;;;;24.38;11.63;;;;;;;15.17;40.50;101214.41;5074973;28;20135;-76
2023/04/06 10:41:11;;;;;;;17.88;6.15;;;;;;;15.22;40.02;101216.72;5077014;28;20048;-77
2023/04/06 10:43:40;;;;;;;17.20;8.00;;;;;;;15.35;39.12;101216.97;5077355;28;20041;-76
2023/04/06 10:46:10;;;;;;;16.95;4.57;;;;;;;15.26;38.11;101217.47;5086359;28;20678;-75
2023/04/06 10:48:41;;;;;;;14.88;6.38;;;;;;;15.30;37.85;101214.66;5080939;28;20048;-73
2023/04/06 10:51:10;;;;;;;20.20;6.68;;;;;;;15.48;36.90;101213.25;5078220;28;20048;-77
2023/04/06 10:53:37;;;;;;;16.48;6.35;;;;;;;15.40;36.94;101202.59;5080519;28;20421;-76
2023/04/06 10:56:09;;;;;;;20.00;7.97;;;;;;;15.39;39.25;101201.03;5079685;28;20508;-77
2023/04/06 10:58:35;;;;;;;10.77;4.78;;;;;;;15.41;38.64;101196.63;5087901;28;20052;-79
2023/04/06 11:01:03;;;;;;;13.00;5.18;;;;;;;15.50;39.68;101196.09;5084377;28;20105;-79
2023/04/06 11:03:29;;;;;;;20.63;7.45;;;;;;;15.54;38.06;101196.84;5069548;28;20044;-75
2023/04/06 11:05:56;;;;;;;21.23;8.80;;;;;;;15.52;37.73;101192.91;5073925;28;20420;-77
2023/04/06 11:08:37;;;;;;;21.30;7.35;;;;;;;15.52;39.25;101194.47;5074689;28;20059;-77
2023/04/06 11:11:08;;;;;;;32.35;15.43;;;;;;;15.81;39.56;101189.28;5075981;28;20044;-78
2023/04/06 11:13:51;;;;;;;21.92;8.95;;;;;;;15.52;40.06;101199.25;5071579;28;20060;-76